createdAt,value
2023-01-17T05:15:30.011Z,2.16
2023-01-17T05:16:29.964Z,2.17
2023-01-17T05:17:29.957Z,2.19
2023-01-17T05:18:29.968Z,2.17
2023-01-17T05:19:30.051Z,2.20
2023-01-17T05:20:29.933Z,2.22
2023-01-17T05:21:29.904Z,2.22
2023-01-17T05:22:29.907Z,2.23
2023-01-17T05:23:29.879Z,2.22
2023-01-17T05:24:29.881Z,2.20
2023-01-17T05:25:29.856Z,2.20
2023-01-17T05:26:29.882Z,2.20
2023-01-17T05:27:29.822Z,2.22
2023-01-17T05:28:29.835Z,2.20
2023-01-17T05:29:29.823Z,2.23
2023-01-17T05:30:29.791Z,2.23
2023-01-17T05:31:29.771Z,2.23
2023-01-17T05:32:29.780Z,2.23
2023-01-17T05:33:29.751Z,2.23
2023-01-17T05:34:29.764Z,2.26
2023-01-17T05:35:29.746Z,2.23
2023-01-17T05:36:29.741Z,2.26
2023-01-17T05:37:29.703Z,2.27
2023-01-17T05:38:29.698Z,2.26
2023-01-17T05:39:29.691Z,2.23
2023-01-17T05:40:29.712Z,2.26
2023-01-17T05:41:29.734Z,2.27
2023-01-17T05:42:29.648Z,2.26
2023-01-17T05:43:29.630Z,2.27
2023-01-17T05:44:29.640Z,2.28
2023-01-17T05:45:29.609Z,2.26
2023-01-17T05:46:29.636Z,2.28
2023-01-17T05:47:29.595Z,2.26
2023-01-17T05:48:29.574Z,2.26
2023-01-17T05:49:29.562Z,2.26
2023-01-17T05:50:29.555Z,2.23
2023-01-17T05:51:29.536Z,2.23
2023-01-17T05:52:29.529Z,2.22
2023-01-17T05:53:29.513Z,2.22
2023-01-17T05:54:29.507Z,2.23
2023-01-17T05:55:29.507Z,2.26
2023-01-17T05:56:29.467Z,2.27
2023-01-17T05:57:29.461Z,2.27
2023-01-17T05:58:29.455Z,2.27
2023-01-17T05:59:36.974Z,2.30
2023-01-17T06:00:30.415Z,2.28
2023-01-17T06:01:29.404Z,2.28
2023-01-17T06:02:29.413Z,2.27
2023-01-17T06:03:29.376Z,2.27
2023-01-17T06:04:29.425Z,2.27
2023-01-17T06:05:29.349Z,2.27
2023-01-17T06:06:29.342Z,2.28
2023-01-17T06:07:29.322Z,2.30
2023-01-17T06:08:29.343Z,2.30
2023-01-17T06:09:29.328Z,2.28
2023-01-17T06:10:29.298Z,2.26
2023-01-17T06:11:29.306Z,2.26
2023-01-17T06:12:29.283Z,2.26
2023-01-17T06:13:29.242Z,2.23
2023-01-17T06:14:29.241Z,2.22
2023-01-17T06:15:29.232Z,2.22
2023-01-17T06:16:29.224Z,2.23
2023-01-17T06:17:29.190Z,2.26
2023-01-17T06:18:29.183Z,2.27
2023-01-17T06:19:29.181Z,2.26
2023-01-17T06:20:29.160Z,2.26
2023-01-17T06:21:29.142Z,2.27
2023-01-17T06:22:29.145Z,2.23
2023-01-17T06:23:29.119Z,2.22
2023-01-17T06:24:29.112Z,2.20
2023-01-17T06:25:29.099Z,2.19
2023-01-17T06:26:29.079Z,2.19
2023-01-17T06:27:29.070Z,2.19
2023-01-17T06:28:29.063Z,2.20
2023-01-17T06:29:29.044Z,2.20
2023-01-17T06:30:29.052Z,2.20
2023-01-17T06:31:29.055Z,2.20
2023-01-17T06:32:29.023Z,2.20
2023-01-17T06:33:28.989Z,2.46
2023-01-17T06:34:28.988Z,2.44
2023-01-17T06:35:28.967Z,2.38
2023-01-17T06:36:28.945Z,2.40
2023-01-17T06:37:28.940Z,2.37
2023-01-17T06:38:28.947Z,2.44
2023-01-17T06:39:28.916Z,2.35
2023-01-17T06:40:28.919Z,2.35
2023-01-17T06:41:28.916Z,2.48
2023-01-17T06:42:28.875Z,2.70
2023-01-17T06:43:28.881Z,2.59
2023-01-17T06:44:28.858Z,2.48
2023-01-17T06:45:28.853Z,2.40
2023-01-17T06:46:28.841Z,2.44
2023-01-17T06:47:28.816Z,2.66
2023-01-17T06:48:28.804Z,2.58
2023-01-17T06:49:28.800Z,2.49
2023-01-17T06:50:28.794Z,2.41
2023-01-17T06:51:28.770Z,2.31
2023-01-17T06:52:28.753Z,2.28
2023-01-17T06:53:28.733Z,2.26
2023-01-17T06:54:28.722Z,2.23
2023-01-17T06:55:28.769Z,2.22
2023-01-17T06:56:28.716Z,2.20
2023-01-17T06:57:28.693Z,2.19
2023-01-17T06:58:28.765Z,2.20
2023-01-17T06:59:28.666Z,2.20
2023-01-17T07:00:29.446Z,2.20
2023-01-17T07:01:28.711Z,2.20
2023-01-17T07:02:28.637Z,2.20
2023-01-17T07:03:28.611Z,2.20
2023-01-17T07:04:28.604Z,2.23
2023-01-17T07:05:28.689Z,2.23
2023-01-17T07:06:28.594Z,2.26
2023-01-17T07:07:28.589Z,2.23
2023-01-17T07:08:28.572Z,2.23
2023-01-17T07:09:28.541Z,2.23
2023-01-17T07:10:28.602Z,2.23
2023-01-17T07:11:28.521Z,2.23
2023-01-17T07:12:28.499Z,2.26
2023-01-17T07:13:28.527Z,2.26
2023-01-17T07:14:28.490Z,2.20
2023-01-17T07:15:28.476Z,2.23
2023-01-17T07:16:28.506Z,2.22
2023-01-17T07:17:28.436Z,2.20
2023-01-17T07:18:28.438Z,2.20
2023-01-17T07:19:28.417Z,2.19
2023-01-17T07:20:28.522Z,2.20
2023-01-17T07:21:28.397Z,2.19
2023-01-17T07:22:28.379Z,2.17
2023-01-17T07:23:28.375Z,2.13
2023-01-17T07:24:28.350Z,2.12
2023-01-17T07:25:28.370Z,2.12
2023-01-17T07:26:28.333Z,2.13
2023-01-17T07:27:28.334Z,2.13
2023-01-17T07:28:28.305Z,2.16
2023-01-17T07:29:28.278Z,2.16
2023-01-17T07:30:28.308Z,2.16
2023-01-17T07:31:28.303Z,2.13
2023-01-17T07:32:28.286Z,2.16
2023-01-17T07:33:28.263Z,2.17
2023-01-17T07:34:28.214Z,2.17
2023-01-17T07:35:28.223Z,2.16
2023-01-17T07:36:28.219Z,2.20
2023-01-17T07:37:28.185Z,2.17
2023-01-17T07:38:28.223Z,2.19
2023-01-17T07:39:28.154Z,2.16
2023-01-17T07:40:28.165Z,2.12
2023-01-17T07:41:28.135Z,2.12
2023-01-17T07:42:28.118Z,2.13
2023-01-17T07:43:28.103Z,2.15
2023-01-17T07:44:28.135Z,2.15
2023-01-17T07:45:28.108Z,2.15
2023-01-17T07:46:28.095Z,2.13
2023-01-17T07:47:28.051Z,2.13
2023-01-17T07:48:28.040Z,2.13
2023-01-17T07:49:28.120Z,2.15
2023-01-17T07:50:28.035Z,2.12
2023-01-17T07:51:29.022Z,2.09
2023-01-17T07:52:27.980Z,2.04
2023-01-17T07:53:27.992Z,2.08
2023-01-17T07:54:27.959Z,2.13
2023-01-17T07:55:27.961Z,2.28
2023-01-17T07:56:27.948Z,2.35
2023-01-17T07:57:27.932Z,2.45
2023-01-17T07:58:27.920Z,2.51
2023-01-17T07:59:27.916Z,2.48
2023-01-17T08:00:27.886Z,2.34
2023-01-17T08:01:28.036Z,2.28
2023-01-17T08:02:27.863Z,2.19
2023-01-17T08:03:27.864Z,2.17
2023-01-17T08:04:27.838Z,2.13
2023-01-17T08:05:27.826Z,2.10
2023-01-17T08:06:27.818Z,2.06
2023-01-17T08:07:27.808Z,2.06
2023-01-17T08:08:27.786Z,2.06
2023-01-17T08:09:27.777Z,2.06
2023-01-17T08:10:27.756Z,2.06
2023-01-17T08:11:27.767Z,2.04
2023-01-17T08:12:27.747Z,2.06
2023-01-17T08:13:29.812Z,2.01
2023-01-17T08:14:27.705Z,1.99
2023-01-17T08:15:27.695Z,1.99
2023-01-17T08:16:27.789Z,2.02
2023-01-17T08:17:27.675Z,2.08
2023-01-17T08:18:27.674Z,2.08
2023-01-17T08:19:27.645Z,2.08
2023-01-17T08:20:28.194Z,2.08
2023-01-17T08:21:27.654Z,2.08
2023-01-17T08:22:27.615Z,2.09
2023-01-17T08:23:27.593Z,2.09
2023-01-17T08:24:27.612Z,2.08
2023-01-17T08:25:27.572Z,2.10
2023-01-17T08:26:27.582Z,2.09
2023-01-17T08:27:27.551Z,2.10
2023-01-17T08:28:27.533Z,2.10
2023-01-17T08:29:27.562Z,2.12
2023-01-17T08:30:27.512Z,2.16
2023-01-17T08:31:27.563Z,2.16
2023-01-17T08:32:27.489Z,2.16
2023-01-17T08:33:27.471Z,2.13
2023-01-17T08:34:27.461Z,2.13
2023-01-17T08:35:27.445Z,2.09
2023-01-17T08:36:27.449Z,2.09
2023-01-17T08:37:27.421Z,2.09
2023-01-17T08:38:27.410Z,2.10
2023-01-17T08:39:27.390Z,2.09
2023-01-17T08:40:27.381Z,2.10
2023-01-17T08:41:27.389Z,2.09
2023-01-17T08:42:27.359Z,2.08
2023-01-17T08:43:27.339Z,2.02
2023-01-17T08:44:27.337Z,2.08
2023-01-17T08:45:27.427Z,2.13
2023-01-17T08:46:27.351Z,2.17
2023-01-17T08:47:27.289Z,2.22
2023-01-17T08:48:27.297Z,2.26
2023-01-17T08:49:28.210Z,2.27
2023-01-17T08:50:27.260Z,2.26
2023-01-17T08:51:27.248Z,2.23
2023-01-17T08:52:27.227Z,2.26
2023-01-17T08:53:27.207Z,2.30
2023-01-17T08:54:27.212Z,2.30
2023-01-17T08:55:27.186Z,2.26
2023-01-17T08:56:27.202Z,2.23
2023-01-17T08:57:27.166Z,2.16
2023-01-17T08:58:27.893Z,2.19
2023-01-17T08:59:27.136Z,2.22
2023-01-17T09:00:27.135Z,2.27
2023-01-17T09:01:27.189Z,2.28
2023-01-17T09:02:27.103Z,2.30
2023-01-17T09:03:27.087Z,2.35
2023-01-17T09:04:27.194Z,2.28
2023-01-17T09:05:27.060Z,2.28
2023-01-17T09:06:27.096Z,2.31
2023-01-17T09:07:27.051Z,2.30
2023-01-17T09:08:27.027Z,2.28
2023-01-17T09:09:27.015Z,2.30
2023-01-17T09:10:27.018Z,2.30
2023-01-17T09:11:26.998Z,2.34
2023-01-17T09:12:26.991Z,2.40
2023-01-17T09:13:26.962Z,2.53
2023-01-17T09:14:34.021Z,2.76
2023-01-17T09:15:27.012Z,2.74
2023-01-17T09:16:26.944Z,2.63
2023-01-17T09:17:26.916Z,2.51
2023-01-17T09:18:26.895Z,2.48
2023-01-17T09:19:26.881Z,2.41
2023-01-17T09:20:26.879Z,2.40
2023-01-17T09:21:26.869Z,2.38
2023-01-17T09:22:26.878Z,2.40
2023-01-17T09:23:26.855Z,2.40
2023-01-17T09:24:26.828Z,2.38
2023-01-17T09:25:26.804Z,2.37
2023-01-17T09:26:26.802Z,2.35
2023-01-17T09:27:26.784Z,2.40
2023-01-17T09:28:26.778Z,2.44
2023-01-17T09:29:26.769Z,2.37
2023-01-17T09:30:26.765Z,2.38
2023-01-17T09:31:26.734Z,2.35
2023-01-17T09:32:26.733Z,2.34
2023-01-17T09:33:26.710Z,2.34
2023-01-17T09:34:26.693Z,2.37
2023-01-17T09:35:26.682Z,2.38
2023-01-17T09:36:26.682Z,2.34
2023-01-17T09:37:26.662Z,2.33
2023-01-17T09:38:26.668Z,2.34
2023-01-17T09:39:26.623Z,2.37
2023-01-17T09:40:26.621Z,2.34
2023-01-17T09:41:26.604Z,2.40
2023-01-17T09:42:26.601Z,2.38
2023-01-17T09:43:26.590Z,2.37
2023-01-17T09:44:26.586Z,2.31
2023-01-17T09:45:26.549Z,2.33
2023-01-17T09:46:26.542Z,2.38
2023-01-17T09:47:26.570Z,2.44
2023-01-17T09:48:26.526Z,2.46
2023-01-17T09:49:26.499Z,2.44
2023-01-17T09:50:26.508Z,2.41
2023-01-17T09:51:26.487Z,2.40
2023-01-17T09:52:26.480Z,2.44
2023-01-17T09:53:26.457Z,2.41
2023-01-17T09:54:26.473Z,2.44
2023-01-17T09:55:26.497Z,2.48
2023-01-17T09:56:26.423Z,2.52
2023-01-17T09:57:26.398Z,2.52
2023-01-17T09:58:26.399Z,2.52
2023-01-17T09:59:32.641Z,2.58
2023-01-17T10:00:27.365Z,2.61
2023-01-17T10:01:26.570Z,2.63
2023-01-17T10:02:26.873Z,2.58
2023-01-17T10:03:26.468Z,2.63
2023-01-17T10:04:26.316Z,2.63
2023-01-17T10:05:26.296Z,2.64
2023-01-17T10:06:26.286Z,2.64
2023-01-17T10:07:26.284Z,2.61
2023-01-17T10:08:26.264Z,2.59
2023-01-17T10:09:26.246Z,2.59
2023-01-17T10:10:26.246Z,2.61
2023-01-17T10:11:26.223Z,2.61
2023-01-17T10:12:26.274Z,2.58
2023-01-17T10:13:26.198Z,2.56
2023-01-17T10:14:26.192Z,2.58
2023-01-17T10:15:26.169Z,2.58
2023-01-17T10:16:26.214Z,2.58
2023-01-17T10:17:26.167Z,2.56
2023-01-17T10:18:30.434Z,2.53
2023-01-17T10:19:26.123Z,2.55
2023-01-17T10:20:26.110Z,2.56
2023-01-17T10:21:26.091Z,2.58
2023-01-17T10:22:26.112Z,2.64
2023-01-17T10:23:26.065Z,2.64
2023-01-17T10:24:26.060Z,2.67
2023-01-17T10:25:26.052Z,2.70
2023-01-17T10:26:26.045Z,2.70
2023-01-17T10:27:26.020Z,2.71
2023-01-17T10:28:26.029Z,2.73
2023-01-17T10:29:25.993Z,2.74
2023-01-17T10:30:25.980Z,2.79
2023-01-17T10:31:25.985Z,2.81
2023-01-17T10:32:25.969Z,2.76
2023-01-17T10:33:25.998Z,2.88
2023-01-17T10:34:26.031Z,2.85
2023-01-17T10:35:25.940Z,2.82
2023-01-17T10:36:25.945Z,2.82
2023-01-17T10:37:25.892Z,2.89
2023-01-17T10:38:25.911Z,2.97
2023-01-17T10:39:25.865Z,3.21
2023-01-17T10:40:25.859Z,3.39
2023-01-17T10:41:25.856Z,3.57
2023-01-17T10:42:25.830Z,3.80
2023-01-17T10:43:25.826Z,3.72
2023-01-17T10:44:25.822Z,4.10
2023-01-17T10:45:25.816Z,3.96
2023-01-17T10:46:25.802Z,3.89
2023-01-17T10:47:25.780Z,3.80
2023-01-17T10:48:25.776Z,3.82
2023-01-17T10:49:25.758Z,4.24
2023-01-17T10:50:25.734Z,5.50
2023-01-17T10:51:25.733Z,5.25
2023-01-17T10:52:25.710Z,4.76
2023-01-17T10:53:25.697Z,4.34
2023-01-17T10:54:25.676Z,4.08
2023-01-17T10:55:25.657Z,3.96
2023-01-17T10:56:25.655Z,4.00
2023-01-17T10:57:25.634Z,4.46
2023-01-17T10:58:25.640Z,5.30
2023-01-17T10:59:25.610Z,5.13
2023-01-17T11:00:25.622Z,4.67
2023-01-17T11:01:25.695Z,4.19
2023-01-17T11:02:25.717Z,4.62
2023-01-17T11:03:25.564Z,5.20
2023-01-17T11:04:25.551Z,6.10
2023-01-17T11:05:25.526Z,5.77
2023-01-17T11:06:25.519Z,5.55
2023-01-17T11:07:25.507Z,5.28
2023-01-17T11:08:25.504Z,4.76
2023-01-17T11:09:25.474Z,4.33
2023-01-17T11:10:25.474Z,4.07
2023-01-17T11:11:25.444Z,3.90
2023-01-17T11:12:25.452Z,3.75
2023-01-17T11:13:25.441Z,3.72
2023-01-17T11:14:25.411Z,3.82
2023-01-17T11:15:25.422Z,3.79
2023-01-17T11:16:27.419Z,3.92
2023-01-17T11:17:25.374Z,4.08
2023-01-17T11:18:25.361Z,4.15
2023-01-17T11:19:25.399Z,4.34
2023-01-17T11:20:25.335Z,5.34
2023-01-17T11:21:25.325Z,5.07
2023-01-17T11:22:25.310Z,4.99
2023-01-17T11:23:25.291Z,4.80
2023-01-17T11:24:25.302Z,4.67
2023-01-17T11:25:25.268Z,4.57
2023-01-17T11:26:25.260Z,5.75
2023-01-17T11:27:25.240Z,6.13
2023-01-17T11:28:25.230Z,6.50
2023-01-17T11:29:25.229Z,6.66
2023-01-17T11:30:25.209Z,7.45
2023-01-17T11:31:25.216Z,7.92
2023-01-17T11:32:25.179Z,8.20
2023-01-17T11:33:25.159Z,8.15
2023-01-17T11:34:25.183Z,7.89
2023-01-17T11:35:25.139Z,7.08
2023-01-17T11:36:25.130Z,6.66
2023-01-17T11:37:25.119Z,6.51
2023-01-17T11:38:25.123Z,6.58
2023-01-17T11:39:25.102Z,6.83
2023-01-17T11:40:25.079Z,7.38
2023-01-17T11:41:25.058Z,6.87
2023-01-17T11:42:25.047Z,7.13
2023-01-17T11:43:25.036Z,7.58
2023-01-17T11:44:25.051Z,7.27
2023-01-17T11:45:25.006Z,7.27
2023-01-17T11:46:25.084Z,6.84
2023-01-17T11:47:24.993Z,6.32
2023-01-17T11:48:24.977Z,6.98
2023-01-17T11:49:24.968Z,7.15
2023-01-17T11:50:24.958Z,6.73
2023-01-17T11:51:24.928Z,7.08
2023-01-17T11:52:24.917Z,7.72
2023-01-17T11:53:24.937Z,7.78
2023-01-17T11:54:24.921Z,8.71
2023-01-17T11:55:24.878Z,8.00
2023-01-17T11:56:24.866Z,7.12
2023-01-17T11:57:24.865Z,6.72
2023-01-17T11:58:24.839Z,6.16
2023-01-17T11:59:24.842Z,5.52
2023-01-17T12:00:24.817Z,5.23
2023-01-17T12:01:24.807Z,5.12
2023-01-17T12:02:24.786Z,5.01
2023-01-17T12:03:24.806Z,5.14
2023-01-17T12:04:24.800Z,5.31
2023-01-17T12:05:24.756Z,5.23
2023-01-17T12:06:24.734Z,4.98
2023-01-17T12:07:24.724Z,4.79
2023-01-17T12:08:24.704Z,4.65
2023-01-17T12:09:24.706Z,4.70
2023-01-17T12:10:24.675Z,5.30
2023-01-17T12:11:24.668Z,5.64
2023-01-17T12:12:24.659Z,5.74
2023-01-17T12:13:24.645Z,5.63
2023-01-17T12:14:25.477Z,5.48
2023-01-17T12:15:24.615Z,5.35
2023-01-17T12:16:24.605Z,5.27
2023-01-17T12:17:24.584Z,5.23
2023-01-17T12:18:24.608Z,5.17
2023-01-17T12:19:24.573Z,5.10
2023-01-17T12:20:24.553Z,5.05
2023-01-17T12:21:24.535Z,5.04
2023-01-17T12:22:24.524Z,5.09
2023-01-17T12:23:24.535Z,5.22
2023-01-17T12:24:24.513Z,5.40
2023-01-17T12:25:24.485Z,5.30
2023-01-17T12:26:24.482Z,5.30
2023-01-17T12:27:24.482Z,5.17
2023-01-17T12:28:24.452Z,5.25
2023-01-17T12:29:24.436Z,5.10
2023-01-17T12:30:24.431Z,5.25
2023-01-17T12:31:24.492Z,5.98
2023-01-17T12:32:24.396Z,5.95
2023-01-17T12:33:24.392Z,5.96
2023-01-17T12:34:24.370Z,6.26
2023-01-17T12:35:24.387Z,6.19
2023-01-17T12:36:24.341Z,6.25
2023-01-17T12:37:24.331Z,7.44
2023-01-17T12:38:32.616Z,8.57
2023-01-17T12:39:25.303Z,9.52
2023-01-17T12:40:24.302Z,10.10
2023-01-17T12:41:24.306Z,10.04
2023-01-17T12:42:24.271Z,9.78
2023-01-17T12:43:24.252Z,9.13
2023-01-17T12:44:24.276Z,8.11
2023-01-17T12:45:24.250Z,7.31
2023-01-17T12:46:24.313Z,6.66
2023-01-17T12:47:24.202Z,6.38
2023-01-17T12:48:24.199Z,5.95
2023-01-17T12:49:24.191Z,5.56
2023-01-17T12:50:24.202Z,5.37
2023-01-17T12:51:24.160Z,5.09
2023-01-17T12:52:24.142Z,4.99
2023-01-17T12:53:24.122Z,4.91
2023-01-17T12:54:24.111Z,4.89
2023-01-17T12:55:24.129Z,4.86
2023-01-17T12:56:24.092Z,4.83
2023-01-17T12:57:24.070Z,4.91
2023-01-17T12:58:24.061Z,4.91
2023-01-17T12:59:24.049Z,4.96
2023-01-17T13:00:24.105Z,4.98
2023-01-17T13:01:24.185Z,4.96
2023-01-17T13:02:24.032Z,5.04
2023-01-17T13:03:23.997Z,5.14
2023-01-17T13:04:23.989Z,5.14
2023-01-17T13:05:23.988Z,5.10
2023-01-17T13:06:23.959Z,5.09
2023-01-17T13:07:23.940Z,4.95
2023-01-17T13:08:23.940Z,4.73
2023-01-17T13:09:23.916Z,4.61
2023-01-17T13:10:23.942Z,4.59
2023-01-17T13:11:23.887Z,4.62
2023-01-17T13:12:23.892Z,4.61
2023-01-17T13:13:23.907Z,4.64
2023-01-17T13:14:23.883Z,4.59
2023-01-17T13:15:23.855Z,4.57
2023-01-17T13:16:23.878Z,4.54
2023-01-17T13:17:23.821Z,4.39
2023-01-17T13:18:23.807Z,4.29
2023-01-17T13:19:23.793Z,4.32
2023-01-17T13:20:23.803Z,4.37
2023-01-17T13:21:23.758Z,4.39
2023-01-17T13:22:23.763Z,4.42
2023-01-17T13:23:23.738Z,4.50
2023-01-17T13:24:23.745Z,4.50
2023-01-17T13:25:23.732Z,4.51
2023-01-17T13:26:23.704Z,4.51
2023-01-17T13:27:23.684Z,4.54
2023-01-17T13:28:23.676Z,4.62
2023-01-17T13:29:23.668Z,4.67
2023-01-17T13:30:23.664Z,4.72
2023-01-17T13:31:23.678Z,4.73
2023-01-17T13:32:23.633Z,4.72
2023-01-17T13:33:23.612Z,4.69
2023-01-17T13:34:23.604Z,4.65
2023-01-17T13:35:23.598Z,4.67
2023-01-17T13:36:23.574Z,4.72
2023-01-17T13:37:23.554Z,4.75
2023-01-17T13:38:23.544Z,4.73
2023-01-17T13:39:23.683Z,4.75
2023-01-17T13:40:23.536Z,4.83
2023-01-17T13:41:23.504Z,4.83
2023-01-17T13:42:23.511Z,4.79
2023-01-17T13:43:23.480Z,4.84
2023-01-17T13:44:23.474Z,4.92
2023-01-17T13:45:23.543Z,4.98
2023-01-17T13:46:23.451Z,4.98
2023-01-17T13:47:23.846Z,4.95
2023-01-17T13:48:23.442Z,4.98
2023-01-17T13:49:23.419Z,5.05
2023-01-17T13:50:23.426Z,5.07
2023-01-17T13:51:23.391Z,4.98
2023-01-17T13:52:23.403Z,4.96
2023-01-17T13:53:23.352Z,4.94
2023-01-17T13:54:23.340Z,4.91
2023-01-17T13:55:23.351Z,4.80
2023-01-17T13:56:23.325Z,4.65
2023-01-17T13:57:23.312Z,4.62
2023-01-17T13:58:23.291Z,4.59
2023-01-17T13:59:23.277Z,4.58
2023-01-17T14:00:23.315Z,4.55
2023-01-17T14:01:23.444Z,4.59
2023-01-17T14:02:23.239Z,4.59
2023-01-17T14:03:23.253Z,4.57
2023-01-17T14:04:23.227Z,4.51
2023-01-17T14:05:23.281Z,4.47
2023-01-17T14:06:25.647Z,4.46
2023-01-17T14:07:23.180Z,4.51
2023-01-17T14:08:23.195Z,4.46
2023-01-17T14:09:23.165Z,4.52
2023-01-17T14:10:23.143Z,4.58
2023-01-17T14:11:23.133Z,4.58
2023-01-17T14:12:23.111Z,4.57
2023-01-17T14:13:23.095Z,4.54
2023-01-17T14:14:23.094Z,4.54
2023-01-17T14:15:23.075Z,4.54
2023-01-17T14:16:23.143Z,4.61
2023-01-17T14:17:23.140Z,4.59
2023-01-17T14:18:23.028Z,4.55
2023-01-17T14:19:23.019Z,4.52
2023-01-17T14:20:23.005Z,4.46
2023-01-17T14:21:22.996Z,4.46
2023-01-17T14:22:22.976Z,4.43
2023-01-17T14:23:22.985Z,4.43
2023-01-17T14:24:22.969Z,4.40
2023-01-17T14:25:22.944Z,4.42
2023-01-17T14:26:22.950Z,4.44
2023-01-17T14:27:22.923Z,4.47
2023-01-17T14:28:22.918Z,4.46
2023-01-17T14:29:22.886Z,4.46
2023-01-17T14:30:22.894Z,4.47
2023-01-17T14:31:22.878Z,4.47
2023-01-17T14:32:22.855Z,4.47
2023-01-17T14:33:22.835Z,4.47
2023-01-17T14:34:22.839Z,4.51
2023-01-17T14:35:22.812Z,4.52
2023-01-17T14:36:22.818Z,4.54
2023-01-17T14:37:22.819Z,4.57
2023-01-17T14:38:22.809Z,4.58
2023-01-17T14:39:22.765Z,4.47
2023-01-17T14:40:22.744Z,4.43
2023-01-17T14:41:22.742Z,4.42
2023-01-17T14:42:22.731Z,4.42
2023-01-17T14:43:22.704Z,4.43
2023-01-17T14:44:22.720Z,4.44
2023-01-17T14:45:22.692Z,4.42
2023-01-17T14:46:22.682Z,4.43
2023-01-17T14:47:22.641Z,4.40
2023-01-17T14:48:22.651Z,4.36
2023-01-17T14:49:22.633Z,4.37
2023-01-17T14:50:22.642Z,4.39
2023-01-17T14:51:22.621Z,4.43
2023-01-17T14:52:22.590Z,4.43
2023-01-17T14:53:22.573Z,4.43
2023-01-17T14:54:22.560Z,4.43
2023-01-17T14:55:22.558Z,4.43
2023-01-17T14:56:22.569Z,4.42
2023-01-17T14:57:22.539Z,4.42
2023-01-17T14:58:22.516Z,4.36
2023-01-17T14:59:22.491Z,4.33
2023-01-17T15:00:22.480Z,4.29
2023-01-17T15:01:22.541Z,4.29
2023-01-17T15:02:22.705Z,4.25
2023-01-17T15:03:22.532Z,4.25
2023-01-17T15:04:22.433Z,4.22
2023-01-17T15:05:22.410Z,4.21
2023-01-17T15:06:22.490Z,4.19
2023-01-17T15:07:22.400Z,4.12
2023-01-17T15:08:22.386Z,4.06
2023-01-17T15:09:22.384Z,4.03
2023-01-17T15:10:22.360Z,4.03
2023-01-17T15:11:22.355Z,4.00
2023-01-17T15:12:22.346Z,3.96
2023-01-17T15:13:29.793Z,3.92
2023-01-17T15:14:23.310Z,3.90
2023-01-17T15:15:22.298Z,3.89
2023-01-17T15:16:22.320Z,3.86
2023-01-17T15:17:22.277Z,3.86
2023-01-17T15:18:22.246Z,3.88
2023-01-17T15:19:22.240Z,3.85
2023-01-17T15:20:22.227Z,3.82
2023-01-17T15:21:22.227Z,3.79
2023-01-17T15:22:22.213Z,3.75
2023-01-17T15:23:22.212Z,3.71
2023-01-17T15:24:22.174Z,3.65
2023-01-17T15:25:22.170Z,3.65
2023-01-17T15:26:22.221Z,3.62
2023-01-17T15:27:22.145Z,3.61
2023-01-17T15:28:22.125Z,3.58
2023-01-17T15:29:22.127Z,3.58
2023-01-17T15:30:22.130Z,3.58
2023-01-17T15:31:22.099Z,3.54
2023-01-17T15:32:22.094Z,3.52
2023-01-17T15:33:22.064Z,3.50
2023-01-17T15:34:22.052Z,3.49
2023-01-17T15:35:22.037Z,3.47
2023-01-17T15:36:22.026Z,3.46
2023-01-17T15:37:22.092Z,3.42
2023-01-17T15:38:22.010Z,3.39
2023-01-17T15:39:21.993Z,3.36
2023-01-17T15:40:21.980Z,3.36
2023-01-17T15:41:21.962Z,3.33
2023-01-17T15:42:21.961Z,3.30
2023-01-17T15:43:21.953Z,3.25
2023-01-17T15:44:21.921Z,3.21
2023-01-17T15:45:21.912Z,3.15
2023-01-17T15:46:21.920Z,3.12
2023-01-17T15:47:21.922Z,3.09
2023-01-17T15:48:28.950Z,3.05
2023-01-17T15:49:21.903Z,2.98
2023-01-17T15:50:21.849Z,2.92
2023-01-17T15:51:21.840Z,2.87
2023-01-17T15:52:21.827Z,2.81
2023-01-17T15:53:21.821Z,2.76
2023-01-17T15:54:21.825Z,2.71
2023-01-17T15:55:22.444Z,2.70
2023-01-17T15:56:21.783Z,2.69
2023-01-17T15:57:21.762Z,2.64
2023-01-17T15:58:21.759Z,2.61
2023-01-17T15:59:21.743Z,2.56
2023-01-17T16:00:21.719Z,2.53
2023-01-17T16:01:21.771Z,2.46
2023-01-17T16:02:21.717Z,2.44
2023-01-17T16:03:21.697Z,2.40
2023-01-17T16:04:21.687Z,2.37
2023-01-17T16:05:22.056Z,2.34
2023-01-17T16:06:21.659Z,2.28
2023-01-17T16:07:21.643Z,2.20
2023-01-17T16:08:21.726Z,2.17
2023-01-17T16:09:21.609Z,2.13
2023-01-17T16:10:21.604Z,2.09
2023-01-17T16:11:21.578Z,2.02
2023-01-17T16:12:21.594Z,1.98
2023-01-17T16:13:21.572Z,1.91
2023-01-17T16:14:21.548Z,1.91
2023-01-17T16:15:21.534Z,1.89
2023-01-17T16:16:21.630Z,1.87
2023-01-17T16:17:21.505Z,1.82
2023-01-17T16:18:21.509Z,1.80
2023-01-17T16:19:21.509Z,1.78
2023-01-17T16:20:21.469Z,1.78
2023-01-17T16:21:21.461Z,1.73
2023-01-17T16:22:21.458Z,1.68
2023-01-17T16:23:21.475Z,1.64
2023-01-17T16:24:21.444Z,1.60
2023-01-17T16:25:21.413Z,1.60
2023-01-17T16:26:21.402Z,1.55
2023-01-17T16:27:21.397Z,1.51
2023-01-17T16:28:21.409Z,1.44
2023-01-17T16:29:21.355Z,1.39
2023-01-17T16:30:21.354Z,1.36
2023-01-17T16:31:21.413Z,1.36
2023-01-17T16:32:21.322Z,1.33
2023-01-17T16:33:21.314Z,1.32
2023-01-17T16:34:21.291Z,1.29
2023-01-17T16:35:21.289Z,1.25
2023-01-17T16:36:21.318Z,1.24
2023-01-17T16:37:22.142Z,1.21
2023-01-17T16:38:21.473Z,1.15
2023-01-17T16:39:21.232Z,1.12
2023-01-17T16:40:21.224Z,1.07
2023-01-17T16:41:21.211Z,1.06
2023-01-17T16:42:21.190Z,1.01
2023-01-17T16:43:21.179Z,0.96
2023-01-17T16:44:21.181Z,0.92
2023-01-17T16:45:21.186Z,0.88
2023-01-17T16:46:21.177Z,0.83
2023-01-17T16:47:21.128Z,0.80
2023-01-17T16:48:21.131Z,0.83
2023-01-17T16:49:21.098Z,0.86
2023-01-17T16:50:21.092Z,0.89
2023-01-17T16:51:21.084Z,0.83
2023-01-17T16:52:21.087Z,0.82
2023-01-17T16:53:24.050Z,0.80
2023-01-17T16:54:21.060Z,0.76
2023-01-17T16:55:21.034Z,0.67
2023-01-17T16:56:21.028Z,0.60
2023-01-17T16:57:20.997Z,0.53
2023-01-17T16:58:20.996Z,0.48
2023-01-17T16:59:20.968Z,0.48
2023-01-17T17:00:20.961Z,0.49
2023-01-17T17:01:21.367Z,0.48
2023-01-17T17:02:20.966Z,0.45
2023-01-17T17:03:20.941Z,0.43
2023-01-17T17:04:20.945Z,0.43
2023-01-17T17:05:20.926Z,0.43
2023-01-17T17:06:20.909Z,0.42
2023-01-17T17:07:20.874Z,0.39
2023-01-17T17:08:20.892Z,0.39
2023-01-17T17:09:20.846Z,0.33
2023-01-17T17:10:20.844Z,0.27
2023-01-17T17:11:20.830Z,0.27
2023-01-17T17:12:20.803Z,0.31
2023-01-17T17:13:20.807Z,0.28
2023-01-17T17:14:20.786Z,0.27
2023-01-17T17:15:20.783Z,0.24
2023-01-17T17:16:20.777Z,0.25
2023-01-17T17:17:20.732Z,0.24
2023-01-17T17:18:20.745Z,0.23
2023-01-17T17:19:20.719Z,0.20
2023-01-17T17:20:20.704Z,0.16
2023-01-17T17:21:20.690Z,0.16
2023-01-17T17:22:20.695Z,0.25
2023-01-17T17:23:20.700Z,0.31
2023-01-17T17:24:20.673Z,0.28
2023-01-17T17:25:20.631Z,0.23
2023-01-17T17:26:20.634Z,0.21
2023-01-17T17:27:20.613Z,0.20
2023-01-17T17:28:20.620Z,0.18
2023-01-17T17:29:20.592Z,0.16
2023-01-17T17:30:20.604Z,0.16
2023-01-17T17:31:20.605Z,0.15
2023-01-17T17:32:20.561Z,0.15
2023-01-17T17:33:20.591Z,0.12
2023-01-17T17:34:20.549Z,0.07
2023-01-17T17:35:20.518Z,0.06
2023-01-17T17:36:20.595Z,0.09
2023-01-17T17:37:20.494Z,0.13
2023-01-17T17:38:20.502Z,0.16
2023-01-17T17:39:20.481Z,0.13
2023-01-17T17:40:20.465Z,0.10
2023-01-17T17:41:20.447Z,0.03
2023-01-17T17:42:20.435Z,-0.04
2023-01-17T17:43:20.408Z,-0.05
2023-01-17T17:44:20.457Z,0.00
2023-01-17T17:45:20.374Z,0.02
2023-01-17T17:46:20.443Z,0.00
2023-01-17T17:47:20.368Z,-0.01
2023-01-17T17:48:20.353Z,-0.05
2023-01-17T17:49:20.388Z,-0.06
2023-01-17T17:50:20.337Z,-0.09
2023-01-17T17:51:20.350Z,-0.09
2023-01-17T17:52:20.303Z,-0.11
2023-01-17T17:53:20.294Z,-0.08
2023-01-17T17:54:20.296Z,-0.06
2023-01-17T17:55:20.261Z,-0.11
2023-01-17T17:56:20.250Z,-0.12
2023-01-17T17:57:20.232Z,-0.08
2023-01-17T17:58:20.228Z,-0.06
2023-01-17T17:59:20.211Z,-0.04
2023-01-17T18:00:20.200Z,-0.06
2023-01-17T18:01:20.361Z,-0.08
2023-01-17T18:02:20.195Z,-0.11
2023-01-17T18:03:20.168Z,-0.12
2023-01-17T18:04:20.159Z,-0.18
2023-01-17T18:05:20.131Z,-0.19
2023-01-17T18:06:20.164Z,-0.19
2023-01-17T18:07:20.129Z,-0.26
2023-01-17T18:08:20.098Z,-0.27
2023-01-17T18:09:20.098Z,-0.19
2023-01-17T18:10:20.069Z,-0.22
2023-01-17T18:11:20.071Z,-0.22
2023-01-17T18:12:20.050Z,-0.22
2023-01-17T18:13:20.027Z,-0.26
2023-01-17T18:14:20.028Z,-0.30
2023-01-17T18:15:20.008Z,-0.34
2023-01-17T18:16:20.002Z,-0.29
2023-01-17T18:17:19.978Z,-0.27
2023-01-17T18:18:19.968Z,-0.29
2023-01-17T18:19:19.992Z,-0.26
2023-01-17T18:20:19.948Z,-0.19
2023-01-17T18:21:19.946Z,-0.13
2023-01-17T18:22:19.924Z,-0.12
2023-01-17T18:23:19.917Z,-0.15
2023-01-17T18:24:19.928Z,-0.24
2023-01-17T18:25:19.875Z,-0.30
2023-01-17T18:26:19.874Z,-0.34
2023-01-17T18:27:19.859Z,-0.39
2023-01-17T18:28:19.835Z,-0.42
2023-01-17T18:29:19.838Z,-0.44
2023-01-17T18:30:19.822Z,-0.45
2023-01-17T18:31:19.843Z,-0.39